Terminal Aerodrome Forecast
Issued by NWS

Home | Current Version | Previous Version | Text Only | Print | Product List | Glossary On
Versions: 1 2 3 4 5 6 7 8 9 10 11 12 13 14 15 16 17 18 19 20 21
000
FTUS42 KTAE 150200 AAB
TAFABY
TAF AMD
KABY 150206Z 1502/1524 11003KT P6SM VCTS SCT040CB BKN250
     FM150900 00000KT 5SM BR OVC002
     FM151400 18005KT P6SM SCT020 SCT040
     FM152000 21007KT P6SM VCTS SCT040CB BKN250=

USA.gov is the U.S. government's official web portal to all federal, state and local government web resources and services.